Ana Sayfa
METAR-TAF:

METAR-TAF

Havaalanları :

Afyon Havalimanı

Afyon, Türkiye

Enlem: 38-45N, Boylam: 030-32E, yükseklik: 1034 m

Güncel hava durumu gözlemi

Rapor saat 10:44 UTC de 5 saat ve 20 dakika önce yapıldı.
Rüzgar doğudan 4 kt, kuzeydoğu ve güney/güneybatı arasında değişken
Sıcaklık 11°C
Nem 71%
Basınç 1024 hPa
Görüş mesafesi 10 km veya daha fazla
1500 m altında bulut yok ve kümülonimbus yok

METAR: LTAH 181044Z 10004KT 050V210 CAVOK 11/06 Q1024 RMK RWY13 12004KT 080V170

Saat: 19:04 (16:04 UTC)

Tahmin

Rapor saat 13:40 UTC de 2 saat ve 24 dakika önce yapıldı.
Ayın 18'si saat 15 UTC'den ayın 18'si saat 24 UTC'ye kadar geçerli Tahmin
Rüzgar değişken yönden 2 kt
Görüş mesafesi 10 km veya daha fazla
1500 m altında bulut yok ve kümülonimbus yok

TAF: LTAH 181340Z 1815/1824 VRB02KT CAVOK

4.000'den fazla havaalanı için hava durumu gözlemleri ve tahminleri (METAR ve TAF raporları).

Kullanılabilir istasyonlar harita üzerinde sarı ve kırmızı noktalarla gösterilir.

İstasyonun adını görmek için fareyi noktanın üzerinde gezdirin.

Sonrasında hava gözlem ve tahminlerini görmek için tıklayın.

Haritayı değiştirmek için: yaklaştırmak için siyah artı işaretli yeşil düğmeye ve uzaklaştırmak için de eksi işaretli düğmeye hızla tıklayın; bitişik haritalar için yeşil okları kullanın.


METAR-TAF: